Time;durP1;ratioP1;P1;durP2;ratioP2;P2;SDS_P1;SDS_P2;PMS_P1;PMS_P2;Temp;Humidity;BMP_temperature;BMP_pressure;BME280_temperature;BME280_humidity;BME280_pressure;Samples;Min_cycle;Max_cycle;Signal;HPM_P1;HPM_P2
2021/03/22 00:00:56;;;;;;;11.73;2.45;;;;;;;7.34;37.38;101977.78;5049153;28;20037;-72
2021/03/22 00:03:25;;;;;;;9.88;2.33;;;;;;;7.33;37.63;101984.19;5031106;28;20122;-71
2021/03/22 00:05:54;;;;;;;9.55;2.35;;;;;;;7.33;37.43;101983.31;5037270;28;20120;-71
2021/03/22 00:08:23;;;;;;;9.30;2.22;;;;;;;7.32;37.48;101979.72;5039286;28;20107;-70
2021/03/22 00:10:51;;;;;;;7.70;2.50;;;;;;;7.31;37.70;101986.13;5058506;28;20038;-71
2021/03/22 00:13:21;;;;;;;6.97;2.17;;;;;;;7.29;37.46;101979.88;5051585;28;20435;-71
2021/03/22 00:15:50;;;;;;;8.30;2.25;;;;;;;7.29;37.55;101987.16;5045646;28;20391;-70
2021/03/22 00:18:19;;;;;;;8.13;2.58;;;;;;;7.28;37.65;101983.56;5046979;28;20044;-70
2021/03/22 00:20:47;;;;;;;10.50;2.63;;;;;;;7.27;37.66;101978.22;5051118;28;20436;-70
2021/03/22 00:23:15;;;;;;;7.78;2.38;;;;;;;7.27;37.72;101975.47;5042219;28;20056;-71
2021/03/22 00:25:43;;;;;;;4.47;2.10;;;;;;;7.27;37.72;101976.38;5035393;28;20200;-70
2021/03/22 00:28:12;;;;;;;8.48;2.10;;;;;;;7.26;37.89;101977.31;5039362;28;20433;-70
2021/03/22 00:30:41;;;;;;;7.32;2.05;;;;;;;7.27;37.77;101975.47;5059660;28;20042;-70
2021/03/22 00:33:11;;;;;;;8.15;2.10;;;;;;;7.26;37.95;101974.59;5049858;28;20037;-70
2021/03/22 00:35:39;;;;;;;8.43;2.33;;;;;;;7.26;37.93;101979.16;5054290;28;20596;-70
2021/03/22 00:38:07;;;;;;;7.10;2.67;;;;;;;7.26;38.00;101965.56;5052203;28;20049;-71
2021/03/22 00:40:37;;;;;;;8.63;2.22;;;;;;;7.26;37.99;101977.31;5044015;28;20049;-70
2021/03/22 00:43:05;;;;;;;8.60;2.40;;;;;;;7.25;37.89;101969.25;5039303;28;20110;-70
2021/03/22 00:45:51;;;;;;;7.03;2.20;;;;;;;7.22;37.99;101964.88;5038916;28;20481;-70
2021/03/22 00:48:18;;;;;;;8.23;2.90;;;;;;;7.23;37.91;101972.06;5054927;28;20041;-71
2021/03/22 00:50:46;;;;;;;11.20;2.88;;;;;;;7.22;37.77;101967.59;5007840;28;20061;-71
2021/03/22 00:53:15;;;;;;;9.77;2.55;;;;;;;7.24;37.86;101970.22;5053425;28;20053;-71
2021/03/22 00:55:43;;;;;;;7.32;2.40;;;;;;;7.21;37.89;101971.28;5045692;28;20103;-71
2021/03/22 00:58:11;;;;;;;10.75;2.53;;;;;;;7.21;38.06;101965.81;5042714;28;20074;-71
2021/03/22 01:00:41;;;;;;;6.80;2.20;;;;;;;7.22;37.95;101958.53;5047026;28;20528;-72
2021/03/22 01:03:15;;;;;;;6.65;2.90;;;;;;;7.22;38.44;101959.44;5057020;28;20037;-72
2021/03/22 01:05:42;;;;;;;8.50;2.22;;;;;;;7.20;38.21;101958.63;5028989;28;20496;-71
2021/03/22 01:08:10;;;;;;;8.60;2.40;;;;;;;7.20;38.27;101953.19;5054174;28;20043;-71
2021/03/22 01:10:43;;;;;;;8.73;2.10;;;;;;;7.21;38.27;101954.06;5059721;28;20045;-71
2021/03/22 01:13:13;;;;;;;6.95;2.05;;;;;;;7.19;38.34;101955.97;5053930;28;20037;-72
2021/03/22 01:15:41;;;;;;;8.38;2.20;;;;;;;7.18;38.10;101954.22;5043431;28;20044;-72
2021/03/22 01:18:08;;;;;;;8.18;2.08;;;;;;;7.18;38.50;101949.66;5052536;28;20091;-72
2021/03/22 01:20:42;;;;;;;7.38;2.20;;;;;;;7.17;38.51;101950.59;5042074;28;20207;-71
2021/03/22 01:23:11;;;;;;;5.80;1.88;;;;;;;7.17;38.26;101952.44;5019076;28;20044;-71
2021/03/22 01:25:39;;;;;;;6.93;2.10;;;;;;;7.17;38.43;101947.00;5041526;28;20065;-72
2021/03/22 01:28:07;;;;;;;5.72;1.85;;;;;;;7.15;38.20;101943.53;5061295;28;20063;-71
2021/03/22 01:30:40;;;;;;;6.97;2.15;;;;;;;7.16;38.69;101939.84;5028179;28;20488;-72
2021/03/22 01:33:10;;;;;;;7.43;2.03;;;;;;;7.14;38.30;101939.03;5033791;28;20539;-71
2021/03/22 01:35:37;;;;;;;6.32;1.90;;;;;;;7.10;38.33;101931.03;5048150;28;20488;-72
2021/03/22 01:38:05;;;;;;;9.38;2.28;;;;;;;7.11;38.41;101938.22;5053693;28;20064;-71
2021/03/22 01:40:55;;;;;;;8.02;2.00;;;;;;;7.12;38.79;101936.38;5052094;28;20049;-71
2021/03/22 01:43:54;;;;;;;8.02;2.10;;;;;;;7.09;39.17;101937.44;5011441;28;20045;-72
2021/03/22 01:46:41;;;;;;;7.13;2.05;;;;;;;7.06;38.77;101934.00;5032691;28;20128;-71
2021/03/22 01:49:09;;;;;;;8.65;2.00;;;;;;;7.07;38.51;101938.50;5047858;28;20041;-71
2021/03/22 01:51:37;;;;;;;8.70;2.05;;;;;;;7.07;38.82;101938.50;5022059;28;20420;-70
2021/03/22 01:54:07;;;;;;;6.90;2.00;;;;;;;7.08;38.80;101926.63;5045410;28;20043;-73
2021/03/22 01:56:44;;;;;;;9.75;2.13;;;;;;;7.07;39.00;101931.22;5051192;28;20143;-72
2021/03/22 01:59:13;;;;;;;8.43;1.90;;;;;;;7.03;38.86;101929.56;5051170;28;20042;-71
2021/03/22 02:01:43;;;;;;;8.80;2.38;;;;;;;7.04;39.03;101925.94;5050809;28;20045;-71
2021/03/22 02:04:11;;;;;;;6.18;2.15;;;;;;;7.01;38.78;101912.44;5032442;28;20032;-72
2021/03/22 02:06:40;;;;;;;8.20;1.63;;;;;;;6.99;38.74;101922.56;5047088;28;20099;-71
2021/03/22 02:09:08;;;;;;;6.05;1.60;;;;;;;6.99;38.99;101922.56;5056451;28;20044;-72
2021/03/22 02:11:36;;;;;;;6.03;1.83;;;;;;;6.97;38.94;101921.75;5046263;28;20049;-72
2021/03/22 02:14:06;;;;;;;9.85;2.00;;;;;;;6.95;38.82;101918.22;5040571;28;20052;-71
2021/03/22 02:16:56;;;;;;;8.50;1.92;;;;;;;6.96;39.49;101924.56;5053815;28;20048;-72
2021/03/22 02:20:06;;;;;;;6.90;1.70;;;;;;;6.89;39.62;101918.56;5051068;28;20029;-71
2021/03/22 02:23:00;;;;;;;6.18;1.88;;;;;;;6.90;39.32;101927.63;5032983;28;20053;-71
2021/03/22 02:25:33;;;;;;;7.53;2.10;;;;;;;6.87;39.21;101922.34;5042005;28;20041;-72
2021/03/22 02:28:40;;;;;;;8.10;1.92;;;;;;;6.83;39.67;101928.91;5042379;28;20045;-72
2021/03/22 02:31:41;;;;;;;5.15;1.65;;;;;;;6.82;39.65;101925.31;5047479;28;20511;-72
2021/03/22 02:34:25;;;;;;;5.50;1.63;;;;;;;6.80;39.83;101919.06;5026104;28;20056;-71
2021/03/22 02:37:24;;;;;;;5.63;1.48;;;;;;;6.80;39.73;101926.34;5038617;28;20081;-72
2021/03/22 02:39:59;;;;;;;8.48;1.77;;;;;;;6.77;39.99;101921.06;5048305;28;20124;-71
2021/03/22 02:42:29;;;;;;;7.13;1.77;;;;;;;6.77;39.57;101910.19;5042933;28;20060;-72
2021/03/22 02:44:57;;;;;;;9.27;2.10;;;;;;;6.75;39.53;101911.13;5046288;28;20049;-71
2021/03/22 02:47:28;;;;;;;6.47;1.88;;;;;;;6.78;39.68;101920.09;5047643;28;20412;-71
2021/03/22 02:50:00;;;;;;;8.73;1.63;;;;;;;6.77;39.92;101921.94;5046491;28;20133;-72
2021/03/22 02:53:05;;;;;;;5.15;1.65;;;;;;;6.74;40.11;101920.28;5039676;28;20087;-71
2021/03/22 02:55:40;;;;;;;6.53;1.60;;;;;;;6.76;40.18;101917.47;5047681;28;20484;-71
2021/03/22 02:58:10;;;;;;;9.40;1.70;;;;;;;6.75;39.55;101911.13;5026252;28;20049;-72
2021/03/22 03:00:42;;;;;;;8.38;2.15;;;;;;;6.75;40.05;101913.84;5040710;28;20036;-71
2021/03/22 03:03:12;;;;;;;7.07;1.75;;;;;;;6.74;39.84;101911.25;5027823;28;20048;-71
2021/03/22 03:05:48;;;;;;;9.20;2.00;;;;;;;6.77;40.33;101915.63;5052539;28;20128;-70
2021/03/22 03:08:18;;;;;;;7.95;1.83;;;;;;;6.74;39.93;101917.56;5045347;28;20041;-70
2021/03/22 03:10:46;;;;;;;8.43;1.95;;;;;;;6.73;40.12;101913.09;5054462;28;20446;-70
2021/03/22 03:13:13;;;;;;;6.95;1.95;;;;;;;6.73;39.88;101920.38;5052559;28;20125;-71
2021/03/22 03:15:40;;;;;;;6.47;1.98;;;;;;;6.74;39.94;101919.41;5051357;28;20383;-70
2021/03/22 03:18:08;;;;;;;8.25;2.17;;;;;;;6.73;40.05;101928.53;5042172;28;20041;-70
2021/03/22 03:20:35;;;;;;;7.32;2.15;;;;;;;6.73;40.06;101917.66;5050365;28;20044;-71
2021/03/22 03:23:05;;;;;;;6.97;2.13;;;;;;;6.75;40.29;101921.13;5049519;28;20043;-71
2021/03/22 03:25:33;;;;;;;8.65;2.30;;;;;;;6.74;40.18;101923.00;5058974;28;20095;-70
2021/03/22 03:28:00;;;;;;;5.75;2.30;;;;;;;6.74;40.03;101925.72;5051337;28;20111;-71
2021/03/22 03:30:32;;;;;;;9.18;2.58;;;;;;;6.75;40.33;101923.84;5051515;28;20505;-71
2021/03/22 03:33:01;;;;;;;9.00;2.58;;;;;;;6.73;40.12;101912.19;5059725;28;20044;-71
2021/03/22 03:35:31;;;;;;;8.52;2.78;;;;;;;6.75;40.36;101926.56;5059417;28;20048;-71
2021/03/22 03:37:59;;;;;;;7.90;2.50;;;;;;;6.73;40.41;101921.25;5050077;28;20415;-71
2021/03/22 03:40:29;;;;;;;8.18;2.65;;;;;;;6.75;40.41;101919.28;5058892;28;20045;-71
2021/03/22 03:42:59;;;;;;;9.43;2.93;;;;;;;6.71;40.35;101925.88;5055263;28;20166;-71
2021/03/22 03:45:28;;;;;;;6.15;2.40;;;;;;;6.74;40.35;101927.56;5047114;28;20064;-71
2021/03/22 03:48:11;;;;;;;9.48;2.45;;;;;;;6.70;40.22;101925.94;5042010;28;20099;-71
2021/03/22 03:50:39;;;;;;;9.00;2.33;;;;;;;6.70;40.15;101920.50;5032861;28;20041;-71
2021/03/22 03:53:10;;;;;;;7.85;2.45;;;;;;;6.69;40.42;101924.19;5042921;28;20370;-71
2021/03/22 03:55:40;;;;;;;7.07;2.40;;;;;;;6.69;40.31;101919.63;5049255;28;20045;-71
2021/03/22 03:58:08;;;;;;;9.15;2.72;;;;;;;6.67;40.52;101921.53;5050782;28;20067;-71
2021/03/22 04:00:41;;;;;;;7.93;2.53;;;;;;;6.69;40.45;101922.34;5046951;28;20037;-71
2021/03/22 04:03:21;;;;;;;8.30;2.67;;;;;;;6.69;40.93;101927.78;5047613;28;20123;-72
2021/03/22 04:05:54;;;;;;;13.32;2.80;;;;;;;6.69;41.01;101927.78;5047639;28;20132;-71
2021/03/22 04:08:21;;;;;;;8.60;3.13;;;;;;;6.68;40.76;101925.16;5058655;28;20103;-71
2021/03/22 04:10:50;;;;;;;8.45;2.88;;;;;;;6.67;40.67;101917.94;5057072;28;20063;-71
2021/03/22 04:13:18;;;;;;;10.40;3.20;;;;;;;6.67;40.69;101918.81;5051937;28;20044;-71
2021/03/22 04:15:46;;;;;;;8.32;2.90;;;;;;;6.68;40.46;101927.88;5064446;28;20462;-71
2021/03/22 04:18:31;;;;;;;8.32;2.70;;;;;;;6.66;40.81;101929.81;5057061;28;20041;-71
2021/03/22 04:20:58;;;;;;;7.15;2.85;;;;;;;6.65;40.65;101928.94;5048588;28;20492;-71
2021/03/22 04:23:25;;;;;;;6.00;2.50;;;;;;;6.65;40.46;101928.06;5056642;28;20045;-71
2021/03/22 04:25:53;;;;;;;7.95;2.65;;;;;;;6.67;40.93;101935.13;5061984;28;20551;-71
2021/03/22 04:28:20;;;;;;;8.63;2.72;;;;;;;6.64;40.71;101938.03;5035190;28;20049;-71
2021/03/22 04:30:47;;;;;;;9.80;2.65;;;;;;;6.63;40.79;101936.28;5053143;28;20049;-71
2021/03/22 04:33:14;;;;;;;9.15;3.28;;;;;;;6.64;40.91;101937.16;5052812;28;20045;-71
2021/03/22 04:35:53;;;;;;;9.68;3.25;;;;;;;6.61;40.80;101940.91;5060325;28;20112;-71
2021/03/22 04:38:21;;;;;;;8.15;2.50;;;;;;;6.61;40.70;101938.19;5044359;28;20049;-71
2021/03/22 04:40:49;;;;;;;5.93;2.00;;;;;;;6.61;40.70;101932.75;5048142;28;20520;-71
2021/03/22 04:43:17;;;;;;;7.25;2.33;;;;;;;6.61;40.66;101942.75;5051105;28;20056;-71
2021/03/22 04:45:44;;;;;;;7.20;2.42;;;;;;;6.59;40.93;101945.53;5052775;28;20053;-71
2021/03/22 04:48:12;;;;;;;8.75;2.33;;;;;;;6.59;40.88;101944.66;5053307;28;20159;-71
2021/03/22 04:50:40;;;;;;;6.65;2.20;;;;;;;6.58;40.98;101943.78;5047095;28;20037;-70
2021/03/22 04:53:07;;;;;;;6.05;2.28;;;;;;;6.58;40.92;101949.22;5048648;28;20053;-71
2021/03/22 04:55:43;;;;;;;6.53;2.60;;;;;;;6.58;41.05;101954.66;5042976;28;20037;-71
2021/03/22 04:58:11;;;;;;;6.95;2.42;;;;;;;6.58;41.10;101953.81;5047425;28;20045;-70
2021/03/22 05:00:49;;;;;;;7.70;2.40;;;;;;;6.58;41.20;101960.09;5049466;28;20036;-70
2021/03/22 05:03:21;;;;;;;8.73;2.50;;;;;;;6.59;41.45;101948.25;5040995;28;20450;-71
2021/03/22 05:05:50;;;;;;;9.88;2.58;;;;;;;6.57;41.02;101955.63;5045068;28;20449;-70
2021/03/22 05:08:21;;;;;;;8.35;2.40;;;;;;;6.60;41.12;101951.84;5037655;28;20083;-70
2021/03/22 05:10:52;;;;;;;7.68;2.70;;;;;;;6.59;41.23;101961.84;5047464;28;20550;-70
2021/03/22 05:13:20;;;;;;;8.75;2.42;;;;;;;6.60;41.11;101954.56;5048767;28;20040;-70
2021/03/22 05:15:50;;;;;;;7.63;2.70;;;;;;;6.60;41.38;101952.75;5053048;28;20393;-70
2021/03/22 05:18:19;;;;;;;6.60;2.53;;;;;;;6.60;41.33;101958.19;5038044;28;20505;-70
2021/03/22 05:20:49;;;;;;;9.63;3.17;;;;;;;6.61;41.42;101950.91;5034230;28;20052;-70
2021/03/22 05:23:18;;;;;;;6.78;2.30;;;;;;;6.60;41.61;101960.91;5039712;28;20044;-70
2021/03/22 05:25:51;;;;;;;7.63;2.63;;;;;;;6.57;41.52;101961.09;5032676;28;20098;-70
2021/03/22 05:28:18;;;;;;;5.97;2.90;;;;;;;6.59;41.70;101960.97;5051474;28;20064;-70
2021/03/22 05:30:46;;;;;;;8.60;3.05;;;;;;;6.60;41.52;101962.72;5051942;28;20624;-70
2021/03/22 05:33:16;;;;;;;7.00;2.70;;;;;;;6.60;41.93;101955.47;5048770;28;20111;-70
2021/03/22 05:35:46;;;;;;;8.88;3.03;;;;;;;6.59;41.56;101950.97;5054182;28;20064;-70
2021/03/22 05:38:14;;;;;;;5.93;2.83;;;;;;;6.59;41.40;101960.97;5044733;28;20056;-70
2021/03/22 05:40:44;;;;;;;8.43;2.72;;;;;;;6.60;41.90;101954.56;5049625;28;20425;-70
2021/03/22 05:43:33;;;;;;;7.65;2.95;;;;;;;6.62;42.67;101958.09;5044154;28;20044;-69
2021/03/22 05:46:15;;;;;;;9.98;2.80;;;;;;;6.61;42.62;101951.78;5056798;28;20581;-70
2021/03/22 05:49:13;;;;;;;9.20;2.90;;;;;;;6.62;42.48;101955.38;5051490;28;20047;-70
2021/03/22 05:52:12;;;;;;;10.95;3.72;;;;;;;6.59;42.50;101955.53;5032197;28;20061;-70
2021/03/22 05:55:04;;;;;;;7.10;3.30;;;;;;;6.58;42.67;101956.53;5048260;28;20057;-70
2021/03/22 05:57:49;;;;;;;10.52;3.63;;;;;;;6.58;42.56;101961.97;5040043;28;20040;-70
2021/03/22 06:00:27;;;;;;;9.70;3.22;;;;;;;6.58;42.63;101953.81;5040991;28;20555;-70
2021/03/22 06:02:59;;;;;;;8.80;3.00;;;;;;;6.57;42.25;101952.03;5055469;28;20036;-71
2021/03/22 06:05:47;;;;;;;8.95;3.40;;;;;;;6.57;42.73;101954.75;5036125;28;20053;-71
2021/03/22 06:08:27;;;;;;;7.53;3.38;;;;;;;6.57;42.70;101954.75;5047807;28;20366;-70
2021/03/22 06:10:56;;;;;;;10.38;3.95;;;;;;;6.55;42.30;101956.66;5038375;28;20045;-71
2021/03/22 06:13:32;;;;;;;10.63;3.85;;;;;;;6.56;42.73;101961.16;5030739;28;20029;-70
2021/03/22 06:16:03;;;;;;;9.70;4.05;;;;;;;6.54;42.12;101957.63;5045500;28;20384;-71
2021/03/22 06:18:36;;;;;;;8.30;3.70;;;;;;;6.54;42.92;101961.22;5028868;28;20037;-71
2021/03/22 06:21:09;;;;;;;8.95;3.63;;;;;;;6.53;42.62;101956.75;5026126;28;20040;-71
2021/03/22 06:23:39;;;;;;;9.43;3.92;;;;;;;6.51;42.36;101972.25;5047803;28;20293;-70
2021/03/22 06:26:27;;;;;;;10.18;4.10;;;;;;;6.53;43.20;101983.03;5053790;28;20048;-70
2021/03/22 06:28:58;;;;;;;10.43;3.78;;;;;;;6.48;42.39;101972.44;5031005;28;20045;-70
2021/03/22 06:31:26;;;;;;;7.72;4.03;;;;;;;6.48;42.36;101977.88;5048772;28;20037;-70
2021/03/22 06:33:59;;;;;;;14.38;4.40;;;;;;;6.48;42.39;101988.75;5054078;28;20041;-71
2021/03/22 06:36:27;;;;;;;14.57;4.78;;;;;;;6.47;42.53;101978.81;5051337;28;20033;-70
2021/03/22 06:38:57;;;;;;;10.50;4.72;;;;;;;6.46;42.48;101977.06;5054845;28;20048;-70
2021/03/22 06:41:37;;;;;;;13.00;6.03;;;;;;;6.47;42.85;101981.53;5051788;28;20127;-71
2021/03/22 06:44:08;;;;;;;14.93;5.32;;;;;;;6.46;43.34;101987.94;5027442;28;20052;-73
2021/03/22 06:46:52;;;;;;;12.57;6.32;;;;;;;6.45;42.74;101988.00;5027532;28;20821;-72
2021/03/22 06:49:23;;;;;;;12.05;5.68;;;;;;;6.44;42.55;101983.50;5059483;28;20384;-72
2021/03/22 06:52:05;;;;;;;12.52;5.72;;;;;;;6.45;43.26;101994.31;5027845;28;20041;-73
2021/03/22 06:54:36;;;;;;;12.02;5.75;;;;;;;6.44;42.88;101997.09;5059403;28;20045;-73
2021/03/22 06:57:09;;;;;;;13.32;7.18;;;;;;;6.45;42.92;101997.03;5053111;28;20045;-72
2021/03/22 06:59:37;;;;;;;;;;;;;;;6.20;43.57;102007.38;5054651;28;20056;-72
2021/03/22 07:02:23;;;;;;;12.40;6.28;;;;;;;6.41;43.73;102006.31;5053342;28;19921;-73
2021/03/22 07:04:53;;;;;;;13.32;6.05;;;;;;;6.43;42.91;102003.50;5060705;28;20541;-73
2021/03/22 07:07:25;;;;;;;16.88;6.88;;;;;;;6.44;42.87;102007.97;5037474;28;20041;-72
2021/03/22 07:09:57;;;;;;;12.68;6.25;;;;;;;6.46;43.21;102012.38;5049219;28;20044;-72
2021/03/22 07:12:34;;;;;;;14.38;6.22;;;;;;;6.48;43.51;102012.31;5054910;28;20492;-73
2021/03/22 07:15:24;;;;;;;13.90;6.90;;;;;;;6.47;43.75;102016.00;5036499;28;20040;-72
2021/03/22 07:18:12;;;;;;;11.90;6.25;;;;;;;6.49;43.68;102014.09;5040865;28;20107;-71
2021/03/22 07:21:03;;;;;;;11.45;6.13;;;;;;;6.48;43.19;102015.91;5031165;28;20150;-71
2021/03/22 07:23:45;;;;;;;;;;;;;;;6.24;43.99;102007.16;5060669;28;20044;-70
2021/03/22 07:26:24;;;;;;;9.88;6.30;;;;;;;6.49;43.50;102014.09;5038536;28;20390;-70
2021/03/22 07:29:11;;;;;;;12.27;6.63;;;;;;;6.54;43.69;102009.28;5027964;28;20056;-71
2021/03/22 07:31:47;;;;;;;12.07;5.95;;;;;;;6.56;43.78;102012.81;5014278;28;20056;-72
2021/03/22 07:37:31;;;;;;;10.15;5.53;;;;;;;6.58;43.70;102017.19;5051692;28;20145;-72
2021/03/22 07:40:05;;;;;;;17.30;8.50;;;;;;;6.61;43.51;102021.59;5063774;28;20050;-71
2021/03/22 07:42:44;;;;;;;15.82;7.90;;;;;;;6.63;43.54;102028.72;5059430;28;20045;-72
2021/03/22 07:45:34;;;;;;;14.25;7.60;;;;;;;6.63;43.79;102022.41;5061213;28;20037;-71
2021/03/22 07:48:28;;;;;;;14.15;7.70;;;;;;;6.65;43.82;102028.66;5061519;28;20036;-72
2021/03/22 07:51:33;;;;;;;14.73;7.35;;;;;;;6.63;43.69;102017.84;5053522;28;20045;-72
2021/03/22 07:54:16;;;;;;;13.20;6.53;;;;;;;6.64;43.42;102019.59;5053666;28;20073;-73
2021/03/22 07:56:53;;;;;;;11.68;6.13;;;;;;;6.65;43.87;102025.94;5044472;28;20075;-71
2021/03/22 07:59:31;;;;;;;10.60;6.05;;;;;;;6.68;43.89;102029.34;5052703;28;20039;-71
2021/03/22 08:02:14;;;;;;;13.68;5.78;;;;;;;6.68;43.54;102034.78;5048877;28;20049;-71
2021/03/22 08:04:50;;;;;;;12.57;5.47;;;;;;;6.67;43.82;102035.75;5037753;28;20090;-71
2021/03/22 08:07:45;;;;;;;9.25;4.63;;;;;;;6.68;44.05;102037.50;5049738;28;20037;-72
2021/03/22 08:10:28;;;;;;;9.35;4.88;;;;;;;6.71;43.81;102033.75;5050890;28;20432;-71
2021/03/22 08:13:05;;;;;;;10.63;4.18;;;;;;;6.69;43.71;102036.56;5060314;28;20049;-71
2021/03/22 08:15:43;;;;;;;12.82;5.13;;;;;;;6.73;43.99;102032.75;5040148;28;20098;-71
2021/03/22 08:18:24;;;;;;;11.63;5.22;;;;;;;6.77;43.85;102038.00;5050988;28;20112;-71
2021/03/22 08:21:03;;;;;;;10.65;5.57;;;;;;;6.77;43.79;102035.28;5053157;28;20052;-73
2021/03/22 08:23:35;;;;;;;7.43;3.92;;;;;;;6.77;43.30;102038.00;5033185;28;20056;-72
2021/03/22 08:26:06;;;;;;;10.98;4.70;;;;;;;6.77;43.34;102028.00;5048870;28;20064;-72
2021/03/22 08:28:39;;;;;;;9.68;4.47;;;;;;;6.81;43.79;102034.16;4988549;28;20079;-72
2021/03/22 08:31:28;;;;;;;10.55;4.07;;;;;;;6.82;43.78;102035.94;5047547;28;20420;-72
2021/03/22 08:34:03;;;;;;;8.07;3.72;;;;;;;6.84;43.84;102040.31;5031887;28;20041;-72
2021/03/22 08:36:40;;;;;;;9.13;3.33;;;;;;;6.90;43.68;102034.56;5054538;28;20055;-73
2021/03/22 08:39:20;;;;;;;8.60;3.80;;;;;;;6.92;43.57;102043.50;5045455;28;20044;-72
2021/03/22 08:41:58;;;;;;;6.65;3.00;;;;;;;6.95;43.87;102034.31;5058069;28;20049;-72
2021/03/22 08:44:30;;;;;;;9.15;2.97;;;;;;;6.96;43.64;102034.25;5051590;28;20045;-72
2021/03/22 08:47:10;;;;;;;6.80;2.97;;;;;;;7.00;43.79;102038.56;5050057;28;20044;-72
2021/03/22 08:49:52;;;;;;;7.18;2.97;;;;;;;7.05;43.65;102043.81;5048709;28;20048;-72
2021/03/22 08:52:28;;;;;;;6.50;3.05;;;;;;;7.07;43.91;102048.22;5050453;28;20140;-72
2021/03/22 08:55:08;;;;;;;6.68;3.20;;;;;;;7.11;43.68;102054.34;5040670;28;20044;-72
2021/03/22 09:00:37;;;;;;;7.13;3.20;;;;;;;7.16;43.73;102051.41;5052467;28;20059;-72
2021/03/22 09:03:32;;;;;;;9.65;3.95;;;;;;;7.20;43.91;102047.53;5051911;28;20041;-73
2021/03/22 09:06:17;;;;;;;7.85;3.78;;;;;;;7.26;44.06;102042.63;5065268;28;20103;-73
2021/03/22 09:09:23;;;;;;;7.38;4.13;;;;;;;7.25;44.24;102049.03;5051661;28;20079;-73
2021/03/22 09:11:52;;;;;;;7.82;4.03;;;;;;;7.37;43.90;102047.53;4990602;28;20046;-72
2021/03/22 09:14:30;;;;;;;7.90;4.13;;;;;;;7.47;43.94;102043.34;4973675;28;20050;-72
2021/03/22 09:17:01;;;;;;;10.77;5.28;;;;;;;7.52;43.52;102056.69;4997375;28;20468;-72
2021/03/22 09:19:41;;;;;;;8.75;4.30;;;;;;;7.60;43.13;102054.44;5033472;28;20396;-72
2021/03/22 09:23:04;;;;;;;8.98;4.57;;;;;;;7.65;43.20;102052.34;5044028;28;20075;-72
2021/03/22 09:26:02;;;;;;;7.45;3.75;;;;;;;7.68;43.34;102046.72;5058405;28;20132;-71
2021/03/22 09:28:59;;;;;;;7.03;3.22;;;;;;;7.76;43.03;102055.34;5047967;28;20045;-72
2021/03/22 09:31:42;;;;;;;5.68;3.00;;;;;;;7.82;42.95;102054.97;5044850;28;20037;-72
2021/03/22 09:34:42;;;;;;;6.18;2.95;;;;;;;7.84;42.55;102053.94;5052039;28;20044;-73
2021/03/22 09:37:46;;;;;;;6.18;2.97;;;;;;;7.87;42.50;102056.50;5067921;28;20051;-72
2021/03/22 09:40:52;;;;;;;7.22;3.15;;;;;;;7.88;42.22;102055.53;5041837;28;20484;-72
2021/03/22 09:43:39;;;;;;;5.90;3.38;;;;;;;7.91;42.04;102054.47;5052674;28;20040;-72
2021/03/22 09:46:25;;;;;;;5.22;3.03;;;;;;;7.92;41.92;102049.91;5060175;28;20099;-72
2021/03/22 09:49:16;;;;;;;6.03;2.85;;;;;;;7.92;42.16;102055.34;5051019;28;20403;-72
2021/03/22 09:51:48;;;;;;;6.65;3.00;;;;;;;7.93;42.00;102059.84;5049111;28;20072;-73
2021/03/22 09:54:33;;;;;;;6.60;3.42;;;;;;;7.93;41.71;102057.13;5043242;28;20064;-73
2021/03/22 09:57:43;;;;;;;6.22;3.47;;;;;;;7.96;41.84;102062.41;5054489;28;20399;-74
2021/03/22 10:00:52;;;;;;;6.25;3.60;;;;;;;7.91;41.89;102059.91;5054062;28;20132;-73
2021/03/22 10:04:05;;;;;;;6.82;3.08;;;;;;;7.92;41.71;102050.78;5049488;28;20094;-73
2021/03/22 10:06:47;;;;;;;5.38;3.70;;;;;;;8.02;41.33;102060.22;4988558;28;20402;-73
2021/03/22 10:09:19;;;;;;;5.78;4.05;;;;;;;8.04;41.37;102060.13;5049639;28;20053;-71
2021/03/22 10:11:48;;;;;;;4.90;3.30;;;;;;;8.06;41.42;102059.09;5062047;28;20443;-72
2021/03/22 10:14:20;;;;;;;7.15;4.00;;;;;;;8.08;41.04;102062.56;5040073;28;20041;-72
2021/03/22 10:16:50;;;;;;;4.65;2.97;;;;;;;8.10;40.91;102067.94;5058874;28;20037;-71
2021/03/22 10:19:21;;;;;;;5.10;3.20;;;;;;;8.11;41.04;102064.25;5044998;28;20520;-72
2021/03/22 10:21:51;;;;;;;6.60;3.45;;;;;;;8.12;40.93;102061.44;5058308;28;20041;-71
2021/03/22 10:24:33;;;;;;;8.20;3.47;;;;;;;8.15;40.81;102072.16;5061667;28;20045;-72
2021/03/22 10:27:01;;;;;;;5.85;3.20;;;;;;;8.14;40.89;102078.59;5027636;28;20074;-69
2021/03/22 10:29:31;;;;;;;5.60;2.70;;;;;;;8.17;40.96;102074.81;5061465;28;20048;-71
2021/03/22 10:32:03;;;;;;;6.38;3.25;;;;;;;8.19;40.55;102081.06;5043014;28;20045;-70
2021/03/22 10:34:40;;;;;;;6.18;3.47;;;;;;;8.18;41.07;102073.84;5056608;28;20041;-69
2021/03/22 10:37:11;;;;;;;6.45;3.30;;;;;;;8.21;40.74;102074.56;5049527;28;20050;-71
2021/03/22 10:39:45;;;;;;;5.18;2.78;;;;;;;8.23;40.82;102071.72;5053333;28;20504;-70
2021/03/22 10:42:37;;;;;;;5.47;3.10;;;;;;;8.23;40.55;102077.16;5032800;28;20064;-71
2021/03/22 10:45:40;;;;;;;3.40;1.95;;;;;;;8.21;40.56;102063.66;5057787;28;20392;-72
2021/03/22 10:48:26;;;;;;;4.88;2.00;;;;;;;8.31;40.36;102071.31;4991145;28;20046;-72
2021/03/22 10:51:18;;;;;;;2.33;1.30;;;;;;;8.37;40.15;102079.13;5057643;28;20049;-70
2021/03/22 10:54:00;;;;;;;2.55;1.10;;;;;;;8.39;39.71;102075.34;5064702;28;20048;-71
2021/03/22 10:56:33;;;;;;;1.88;1.10;;;;;;;8.42;40.28;102071.53;5048048;28;20116;-73
2021/03/22 10:59:05;;;;;;;2.55;1.20;;;;;;;8.46;40.19;102074.06;5048611;28;20037;-71
2021/03/22 11:01:36;;;;;;;2.20;1.08;;;;;;;8.51;40.30;102074.66;5064218;28;20501;-72
2021/03/22 11:04:07;;;;;;;2.83;1.40;;;;;;;8.55;40.25;102069.91;5053434;28;20044;-70
2021/03/22 11:06:39;;;;;;;3.22;1.60;;;;;;;8.58;39.84;102070.59;5057641;28;20684;-71
2021/03/22 11:09:17;;;;;;;4.40;1.70;;;;;;;8.63;39.44;102079.41;5059214;28;20033;-72
2021/03/22 11:11:44;;;;;;;3.58;1.50;;;;;;;8.63;40.00;102073.06;5062643;28;20044;-70
2021/03/22 11:14:16;;;;;;;4.07;1.85;;;;;;;8.67;39.86;102085.53;5058323;28;20044;-70
2021/03/22 11:16:45;;;;;;;4.88;1.80;;;;;;;8.67;40.08;102080.09;5054873;28;20072;-70
2021/03/22 11:19:24;;;;;;;6.03;1.85;;;;;;;8.73;39.52;102081.56;5053871;28;20048;-70
2021/03/22 11:21:55;;;;;;;2.85;1.75;;;;;;;8.72;39.82;102088.00;5054504;28;20044;-70
2021/03/22 11:24:42;;;;;;;3.28;1.63;;;;;;;8.76;39.13;102087.72;5061123;28;20483;-71
2021/03/22 11:27:11;;;;;;;4.30;1.60;;;;;;;8.75;39.75;102087.81;5058144;28;20111;-71
2021/03/22 11:29:56;;;;;;;4.43;2.13;;;;;;;8.76;39.52;102085.00;5054207;28;20032;-71
2021/03/22 11:32:27;;;;;;;4.53;1.73;;;;;;;8.76;39.51;102086.84;5061687;28;20124;-71
2021/03/22 11:34:59;;;;;;;4.93;1.67;;;;;;;8.77;39.52;102091.34;5055790;28;20061;-70
2021/03/22 11:37:30;;;;;;;3.53;1.42;;;;;;;8.77;39.50;102086.75;5057791;28;20393;-72
2021/03/22 11:40:05;;;;;;;3.70;1.33;;;;;;;8.79;38.97;102097.59;5060209;28;20037;-71
2021/03/22 11:42:35;;;;;;;2.97;1.20;;;;;;;8.77;39.25;102094.06;5045822;28;20523;-71
2021/03/22 11:45:28;;;;;;;2.97;1.60;;;;;;;8.77;38.41;102088.59;5050009;28;20049;-71
2021/03/22 11:47:56;;;;;;;2.60;1.15;;;;;;;8.73;39.19;102084.28;5049722;28;20037;-70
2021/03/22 11:50:34;;;;;;;3.88;1.50;;;;;;;8.76;38.79;102090.47;5045656;28;20091;-70
2021/03/22 11:53:21;;;;;;;3.28;1.33;;;;;;;8.75;39.10;102087.81;5036870;28;20029;-71
2021/03/22 11:55:52;;;;;;;3.10;1.45;;;;;;;8.77;38.75;102086.75;5056352;28;20041;-70
2021/03/22 11:58:36;;;;;;;3.45;1.95;;;;;;;8.78;38.67;102079.47;5043680;28;20037;-69
2021/03/22 12:01:22;;;;;;;3.92;1.67;;;;;;;8.77;38.51;102083.16;5048826;28;20076;-70
2021/03/22 12:04:18;;;;;;;2.70;1.20;;;;;;;8.77;38.54;102085.88;5047762;28;20041;-72
2021/03/22 12:06:55;;;;;;;3.33;1.33;;;;;;;8.78;38.84;102087.63;5047882;28;20045;-71
2021/03/22 12:09:23;;;;;;;2.58;1.20;;;;;;;8.77;38.97;102094.94;5027793;28;20044;-71
2021/03/22 12:11:56;;;;;;;2.40;1.30;;;;;;;8.79;38.94;102094.88;5053688;28;20398;-71
2021/03/22 12:14:24;;;;;;;2.00;0.95;;;;;;;8.78;39.04;102098.56;5038095;28;20041;-72
2021/03/22 12:16:59;;;;;;;3.22;1.10;;;;;;;8.81;38.50;102106.53;5058443;28;20041;-71
2021/03/22 12:19:33;;;;;;;2.33;1.08;;;;;;;8.79;38.47;102094.88;5055768;28;20488;-73